East Douglas, MA (01516)

2:13 AM EDT on October 01, 2016 (GMT -0400)
Bill and Cyndi Cross St | | Change Station

Elev 510 ft 42.08 °N, 71.74 °W | Updated 8 seconds ago

Light Rain
Light Rain Mist
53.2 °F
Feels Like 53.2 °F
N
0.0
Wind Variable Wind from NE
Gusts 0.0 mph

Today
High -- | Low -- °F
--% Chance of Precip.
Yesterday
High -- | Low -- °F
Precip. -- in
Pressure 30.33 in
Visibility 1.2 miles
Clouds Overcast 200 ft
Dew Point 53 °F
Humidity 98%
Rainfall 0.02 in
Snow Depth Not available.
6:44 AM 6:27 PM
New Moon, 0% visible
METAR KORH 010554Z AUTO 03010G17KT 1 1/4SM -RA BR OVC002 10/09 A3032 RMK AO2 RAE0456B16 SLP271 P0001 60012 T01000094 10100 20094 55007
Pressure 30.33 in
Visibility 1.2 miles
Clouds Overcast 200 ft
Dew Point 53 °F
Humidity 98%
Rainfall 0.02 in
Snow Depth Not available.
6:44 AM 6:27 PM
New Moon, 0% visible
METAR KORH 010554Z AUTO 03010G17KT 1 1/4SM -RA BR OVC002 10/09 A3032 RMK AO2 RAE0456B16 SLP271 P0001 60012 T01000094 10100 20094 55007

10-Day Weather Forecast

Almanac

Astronomy

Oct. 01, 2016 Rise Set
Actual Time
Civil Twilight
Nautical Twilight
Astronomical Twilight
Moon
Length of Visible Light
Length of Day
Tomorrow will be .
, % of the Moon is Illuminated

Today's Extremes

State Highs State Lows

Community

WunderPhotos

Upload Photos

1,942,898 photos uploaded!

WunderBlog® & News

Nearby

Air Quality

  Air Quality AQ Index Pollutant
Not available.

Snow Depth

Station Depth Elevation

Earthquake Activity

City Distance Mag. Time & Date
Minimum magnitude displayed is 2.5.

Coastal Water Temperatures

Place Temperature

Stations

Nearby Weather Stations

Station Location Temp. Windchill Dew Point Humidity Wind Precip. Elev Updated Type
                   

Watches & Warnings

There are currently no watches in effect.